sensor_id;sensor_type;location;lat;lon;timestamp;pressure;altitude;pressure_sealevel;temperature;humidity
30073;BME280;16897;52.422;13.678;2023-04-08T00:00:36;101687.81;;;9.09;49.45
30073;BME280;16897;52.422;13.678;2023-04-08T00:04:37;101675.22;;;8.97;49.55
30073;BME280;16897;52.422;13.678;2023-04-08T00:08:39;101629.94;;;8.74;49.62
30073;BME280;16897;52.422;13.678;2023-04-08T00:12:41;101675.00;;;9.03;49.47
30073;BME280;16897;52.422;13.678;2023-04-08T00:16:43;101684.50;;;9.04;49.51
30073;BME280;16897;52.422;13.678;2023-04-08T00:20:44;101690.56;;;9.04;49.70
30073;BME280;16897;52.422;13.678;2023-04-08T00:24:46;101690.63;;;9.03;49.77
30073;BME280;16897;52.422;13.678;2023-04-08T00:28:48;101651.47;;;8.79;49.60
30073;BME280;16897;52.422;13.678;2023-04-08T00:32:50;101694.16;;;9.02;49.61
30073;BME280;16897;52.422;13.678;2023-04-08T00:36:51;101684.63;;;9.01;49.68
30073;BME280;16897;52.422;13.678;2023-04-08T00:40:54;101681.31;;;8.96;49.63
30073;BME280;16897;52.422;13.678;2023-04-08T00:44:56;101672.78;;;8.91;49.70
30073;BME280;16897;52.422;13.678;2023-04-08T00:48:58;101679.63;;;8.95;49.76
30073;BME280;16897;52.422;13.678;2023-04-08T00:52:59;101683.78;;;9.00;49.76
30073;BME280;16897;52.422;13.678;2023-04-08T00:57:01;101701.97;;;9.02;49.81
30073;BME280;16897;52.422;13.678;2023-04-08T01:01:14;101690.19;;;8.90;49.95
30073;BME280;16897;52.422;13.678;2023-04-08T01:05:23;101702.16;;;8.96;50.00
30073;BME280;16897;52.422;13.678;2023-04-08T01:09:32;101692.75;;;8.92;49.83
30073;BME280;16897;52.422;13.678;2023-04-08T01:13:33;101674.88;;;8.81;50.13
30073;BME280;16897;52.422;13.678;2023-04-08T01:17:37;101701.41;;;8.92;49.87
30073;BME280;16897;52.422;13.678;2023-04-08T01:21:40;101707.47;;;8.93;49.87
30073;BME280;16897;52.422;13.678;2023-04-08T01:25:52;101702.38;;;8.90;50.05
30073;BME280;16897;52.422;13.678;2023-04-08T01:29:54;101712.69;;;8.93;49.93
30073;BME280;16897;52.422;13.678;2023-04-08T01:33:56;101712.78;;;8.90;50.01
30073;BME280;16897;52.422;13.678;2023-04-08T01:37:58;101709.16;;;8.94;50.16
30073;BME280;16897;52.422;13.678;2023-04-08T01:42:00;101668.38;;;8.66;49.94
30073;BME280;16897;52.422;13.678;2023-04-08T01:46:03;101713.38;;;8.98;50.09
30073;BME280;16897;52.422;13.678;2023-04-08T01:50:06;101708.31;;;8.93;50.07
30073;BME280;16897;52.422;13.678;2023-04-08T01:54:09;101701.34;;;8.94;49.99
30073;BME280;16897;52.422;13.678;2023-04-08T01:58:14;101696.44;;;8.84;50.03
30073;BME280;16897;52.422;13.678;2023-04-08T02:02:20;101711.00;;;8.92;50.07
30073;BME280;16897;52.422;13.678;2023-04-08T02:06:23;101722.03;;;8.98;50.22
30073;BME280;16897;52.422;13.678;2023-04-08T02:10:27;101736.72;;;9.01;50.21
30073;BME280;16897;52.422;13.678;2023-04-08T02:14:28;101709.25;;;8.91;50.09
30073;BME280;16897;52.422;13.678;2023-04-08T02:18:30;101723.00;;;8.96;50.14
30073;BME280;16897;52.422;13.678;2023-04-08T02:22:43;101733.25;;;9.02;50.20
30073;BME280;16897;52.422;13.678;2023-04-08T02:26:48;101725.66;;;8.94;50.27
30073;BME280;16897;52.422;13.678;2023-04-08T02:30:53;101720.56;;;8.91;50.32
30073;BME280;16897;52.422;13.678;2023-04-08T02:34:58;101719.66;;;8.92;50.26
30073;BME280;16897;52.422;13.678;2023-04-08T02:39:02;101693.34;;;8.73;50.20
30073;BME280;16897;52.422;13.678;2023-04-08T02:43:03;101743.66;;;9.02;50.19
30073;BME280;16897;52.422;13.678;2023-04-08T02:47:05;101731.84;;;8.90;50.23
30073;BME280;16897;52.422;13.678;2023-04-08T02:51:09;101736.03;;;8.96;50.28
30073;BME280;16897;52.422;13.678;2023-04-08T02:55:11;101741.94;;;9.01;50.50
30073;BME280;16897;52.422;13.678;2023-04-08T02:59:13;101740.25;;;9.00;50.42
30073;BME280;16897;52.422;13.678;2023-04-08T03:03:14;101755.56;;;9.09;50.33
30073;BME280;16897;52.422;13.678;2023-04-08T03:07:15;101750.31;;;9.11;50.51
30073;BME280;16897;52.422;13.678;2023-04-08T03:11:17;101743.69;;;9.00;50.54
30073;BME280;16897;52.422;13.678;2023-04-08T03:15:19;101721.44;;;8.90;50.33
30073;BME280;16897;52.422;13.678;2023-04-08T03:19:21;101763.28;;;9.12;50.25
30073;BME280;16897;52.422;13.678;2023-04-08T03:23:23;101780.53;;;9.16;50.42
30073;BME280;16897;52.422;13.678;2023-04-08T03:27:24;101770.13;;;9.16;50.44
30073;BME280;16897;52.422;13.678;2023-04-08T03:31:26;101752.47;;;8.98;50.42
30073;BME280;16897;52.422;13.678;2023-04-08T03:35:28;101774.50;;;9.14;50.50
30073;BME280;16897;52.422;13.678;2023-04-08T03:39:29;101784.91;;;9.16;50.37
30073;BME280;16897;52.422;13.678;2023-04-08T03:43:31;101784.94;;;9.14;50.48
30073;BME280;16897;52.422;13.678;2023-04-08T03:47:33;101782.38;;;9.13;50.68
30073;BME280;16897;52.422;13.678;2023-04-08T03:51:35;101794.41;;;9.17;50.64
30073;BME280;16897;52.422;13.678;2023-04-08T03:55:36;101786.56;;;9.18;50.62
30073;BME280;16897;52.422;13.678;2023-04-08T03:59:38;101786.69;;;9.14;50.60
30073;BME280;16897;52.422;13.678;2023-04-08T04:03:41;101798.56;;;9.22;50.60
30073;BME280;16897;52.422;13.678;2023-04-08T04:07:43;101786.69;;;9.14;50.62
30073;BME280;16897;52.422;13.678;2023-04-08T04:11:44;101793.47;;;9.19;50.71
30073;BME280;16897;52.422;13.678;2023-04-08T04:15:46;101792.84;;;9.11;50.61
30073;BME280;16897;52.422;13.678;2023-04-08T04:19:48;101787.69;;;9.09;50.66
30073;BME280;16897;52.422;13.678;2023-04-08T04:23:49;101814.22;;;9.22;50.76
30073;BME280;16897;52.422;13.678;2023-04-08T04:27:51;101807.47;;;9.15;50.67
30073;BME280;16897;52.422;13.678;2023-04-08T04:31:53;101828.88;;;9.26;50.71
30073;BME280;16897;52.422;13.678;2023-04-08T04:35:54;101830.66;;;9.24;50.86
30073;BME280;16897;52.422;13.678;2023-04-08T04:39:56;101825.53;;;9.21;50.86
30073;BME280;16897;52.422;13.678;2023-04-08T04:43:57;101793.09;;;9.03;50.77
30073;BME280;16897;52.422;13.678;2023-04-08T04:47:59;101815.22;;;9.18;51.00
30073;BME280;16897;52.422;13.678;2023-04-08T04:52:01;101840.03;;;9.30;50.77
30073;BME280;16897;52.422;13.678;2023-04-08T04:56:03;101801.59;;;9.10;51.01
30073;BME280;16897;52.422;13.678;2023-04-08T05:00:05;101840.13;;;9.27;50.94
30073;BME280;16897;52.422;13.678;2023-04-08T05:04:08;101842.53;;;9.33;50.97
30073;BME280;16897;52.422;13.678;2023-04-08T05:08:10;101833.16;;;9.27;50.89
30073;BME280;16897;52.422;13.678;2023-04-08T05:12:12;101848.59;;;9.34;51.01
30073;BME280;16897;52.422;13.678;2023-04-08T05:16:14;101850.34;;;9.33;51.03
30073;BME280;16897;52.422;13.678;2023-04-08T05:20:15;101868.47;;;9.38;50.91
30073;BME280;16897;52.422;13.678;2023-04-08T05:24:17;101872.75;;;9.39;50.86
30073;BME280;16897;52.422;13.678;2023-04-08T05:28:19;101830.94;;;9.15;50.83
30073;BME280;16897;52.422;13.678;2023-04-08T05:32:21;101885.88;;;9.37;51.02
30073;BME280;16897;52.422;13.678;2023-04-08T05:36:22;101888.50;;;9.36;51.03
30073;BME280;16897;52.422;13.678;2023-04-08T05:40:24;101856.09;;;9.16;50.98
30073;BME280;16897;52.422;13.678;2023-04-08T05:44:26;101883.31;;;9.34;51.17
30073;BME280;16897;52.422;13.678;2023-04-08T05:48:28;101897.06;;;9.39;50.98
30073;BME280;16897;52.422;13.678;2023-04-08T05:52:29;101877.38;;;9.30;51.13
30073;BME280;16897;52.422;13.678;2023-04-08T05:56:31;101892.69;;;9.41;51.12
30073;BME280;16897;52.422;13.678;2023-04-08T06:00:33;101885.94;;;9.34;51.00
30073;BME280;16897;52.422;13.678;2023-04-08T06:04:34;101891.94;;;9.38;51.06
30073;BME280;16897;52.422;13.678;2023-04-08T06:08:36;101919.50;;;9.45;51.24
30073;BME280;16897;52.422;13.678;2023-04-08T06:12:38;101906.53;;;9.43;51.30
30073;BME280;16897;52.422;13.678;2023-04-08T06:16:39;101905.72;;;9.41;51.19
30073;BME280;16897;52.422;13.678;2023-04-08T06:20:41;101901.41;;;9.40;51.15
30073;BME280;16897;52.422;13.678;2023-04-08T06:24:43;101921.00;;;9.52;51.35
30073;BME280;16897;52.422;13.678;2023-04-08T06:28:44;101908.22;;;9.44;51.20
30073;BME280;16897;52.422;13.678;2023-04-08T06:32:46;101914.13;;;9.49;51.27
30073;BME280;16897;52.422;13.678;2023-04-08T06:36:48;101939.03;;;9.60;51.36
30073;BME280;16897;52.422;13.678;2023-04-08T06:40:50;101930.38;;;9.59;51.34
30073;BME280;16897;52.422;13.678;2023-04-08T06:44:52;101946.78;;;9.61;51.39
30073;BME280;16897;52.422;13.678;2023-04-08T06:48:53;101952.00;;;9.61;51.46
30073;BME280;16897;52.422;13.678;2023-04-08T06:52:56;101951.84;;;9.67;51.52
30073;BME280;16897;52.422;13.678;2023-04-08T06:56:57;101946.00;;;9.59;51.50
30073;BME280;16897;52.422;13.678;2023-04-08T07:00:59;101946.78;;;9.61;51.62
30073;BME280;16897;52.422;13.678;2023-04-08T07:05:01;101941.78;;;9.55;51.53
30073;BME280;16897;52.422;13.678;2023-04-08T07:09:03;101982.81;;;9.78;51.45
30073;BME280;16897;52.422;13.678;2023-04-08T07:13:05;101968.09;;;9.75;51.47
30073;BME280;16897;52.422;13.678;2023-04-08T07:17:06;101950.22;;;9.63;51.52
30073;BME280;16897;52.422;13.678;2023-04-08T07:21:08;101969.19;;;9.68;51.60
30073;BME280;16897;52.422;13.678;2023-04-08T07:25:09;101977.72;;;9.73;51.59
30073;BME280;16897;52.422;13.678;2023-04-08T07:29:11;102006.72;;;9.91;51.69
30073;BME280;16897;52.422;13.678;2023-04-08T07:33:12;101996.28;;;9.91;51.78
30073;BME280;16897;52.422;13.678;2023-04-08T07:37:14;101994.50;;;9.93;51.66
30073;BME280;16897;52.422;13.678;2023-04-08T07:41:16;101964.56;;;9.77;51.73
30073;BME280;16897;52.422;13.678;2023-04-08T07:45:17;101997.66;;;10.03;51.70
30073;BME280;16897;52.422;13.678;2023-04-08T07:49:19;102003.72;;;10.03;51.78
30073;BME280;16897;52.422;13.678;2023-04-08T07:53:21;101980.59;;;9.92;51.85
30073;BME280;16897;52.422;13.678;2023-04-08T07:57:24;101989.84;;;10.03;51.85
30073;BME280;16897;52.422;13.678;2023-04-08T08:01:26;102009.44;;;10.14;51.70
30073;BME280;16897;52.422;13.678;2023-04-08T08:05:31;102004.34;;;10.11;51.77
30073;BME280;16897;52.422;13.678;2023-04-08T08:09:32;102016.19;;;10.22;51.68
30073;BME280;16897;52.422;13.678;2023-04-08T08:13:34;101992.47;;;10.01;51.78
30073;BME280;16897;52.422;13.678;2023-04-08T08:17:35;102027.44;;;10.24;51.86
30073;BME280;16897;52.422;13.678;2023-04-08T08:21:40;102032.66;;;10.24;51.94
30073;BME280;16897;52.422;13.678;2023-04-08T08:25:42;102042.09;;;10.29;52.01
30073;BME280;16897;52.422;13.678;2023-04-08T08:29:44;102030.09;;;10.22;51.87
30073;BME280;16897;52.422;13.678;2023-04-08T08:33:45;102041.19;;;10.29;52.25
30073;BME280;16897;52.422;13.678;2023-04-08T08:37:47;102028.31;;;10.23;52.04
30073;BME280;16897;52.422;13.678;2023-04-08T08:41:49;102042.88;;;10.31;52.08
30073;BME280;16897;52.422;13.678;2023-04-08T08:45:52;102009.44;;;10.14;51.92
30073;BME280;16897;52.422;13.678;2023-04-08T08:49:53;102042.81;;;10.33;52.25
30073;BME280;16897;52.422;13.678;2023-04-08T08:53:55;102057.19;;;10.46;52.21
30073;BME280;16897;52.422;13.678;2023-04-08T08:57:57;102054.44;;;10.51;52.18
30073;BME280;16897;52.422;13.678;2023-04-08T09:01:58;102056.81;;;10.57;52.08
30073;BME280;16897;52.422;13.678;2023-04-08T09:06:00;102025.09;;;10.43;52.12
30073;BME280;16897;52.422;13.678;2023-04-08T09:10:02;102037.88;;;10.50;52.14
30073;BME280;16897;52.422;13.678;2023-04-08T09:14:05;102033.56;;;10.49;52.39
30073;BME280;16897;52.422;13.678;2023-04-08T09:18:20;102059.78;;;10.73;52.33
30073;BME280;16897;52.422;13.678;2023-04-08T09:22:22;102054.47;;;10.74;52.25
30073;BME280;16897;52.422;13.678;2023-04-08T09:26:24;102080.06;;;10.91;52.25
30073;BME280;16897;52.422;13.678;2023-04-08T09:30:27;102067.13;;;10.87;52.36
30073;BME280;16897;52.422;13.678;2023-04-08T09:34:29;102090.97;;;11.02;52.39
30073;BME280;16897;52.422;13.678;2023-04-08T09:38:32;102092.63;;;11.05;52.47
30073;BME280;16897;52.422;13.678;2023-04-08T09:42:35;102092.53;;;11.08;52.37
30073;BME280;16897;52.422;13.678;2023-04-08T09:50:51;102057.31;;;10.93;52.52
30073;BME280;16897;52.422;13.678;2023-04-08T09:55:07;102108.53;;;11.24;52.22
30073;BME280;16897;52.422;13.678;2023-04-08T09:59:13;102100.03;;;11.17;52.13
30073;BME280;16897;52.422;13.678;2023-04-08T10:03:39;102098.09;;;11.22;52.24
30073;BME280;16897;52.422;13.678;2023-04-08T10:07:45;102092.28;;;11.14;52.34
30073;BME280;16897;52.422;13.678;2023-04-08T10:11:49;102092.81;;;11.24;52.54
30073;BME280;16897;52.422;13.678;2023-04-08T10:16:26;102070.50;;;11.15;52.52
30073;BME280;16897;52.422;13.678;2023-04-08T10:24:39;102096.31;;;11.48;52.62
30073;BME280;16897;52.422;13.678;2023-04-08T10:28:42;102103.81;;;11.57;52.67
30073;BME280;16897;52.422;13.678;2023-04-08T10:32:44;102096.81;;;11.58;52.45
30073;BME280;16897;52.422;13.678;2023-04-08T10:36:46;102090.56;;;11.62;52.37
30073;BME280;16897;52.422;13.678;2023-04-08T10:40:48;102113.44;;;11.80;52.53
30073;BME280;16897;52.422;13.678;2023-04-08T10:44:49;102096.81;;;11.81;52.32
30073;BME280;16897;52.422;13.678;2023-04-08T10:49:00;102065.84;;;11.69;52.54
30073;BME280;16897;52.422;13.678;2023-04-08T10:53:02;102089.78;;;11.82;52.44
30073;BME280;16897;52.422;13.678;2023-04-08T10:57:05;102109.34;;;11.97;52.49
30073;BME280;16897;52.422;13.678;2023-04-08T11:01:07;102104.03;;;11.98;52.50
30073;BME280;16897;52.422;13.678;2023-04-08T11:05:09;102097.91;;;11.99;52.53
30073;BME280;16897;52.422;13.678;2023-04-08T11:09:11;102074.81;;;11.87;52.37
30073;BME280;16897;52.422;13.678;2023-04-08T11:13:13;102073.97;;;11.86;52.42
30073;BME280;16897;52.422;13.678;2023-04-08T11:17:15;102103.44;;;12.13;52.33
30073;BME280;16897;52.422;13.678;2023-04-08T11:21:17;102101.41;;;12.20;52.49
30073;BME280;16897;52.422;13.678;2023-04-08T11:25:19;102103.72;;;12.28;52.46
30073;BME280;16897;52.422;13.678;2023-04-08T11:29:20;102077.78;;;12.22;52.60
30073;BME280;16897;52.422;13.678;2023-04-08T11:33:25;102090.38;;;12.34;52.42
30073;BME280;16897;52.422;13.678;2023-04-08T11:37:38;102109.75;;;12.52;52.33
30073;BME280;16897;52.422;13.678;2023-04-08T11:41:40;102071.44;;;12.27;52.38
30073;BME280;16897;52.422;13.678;2023-04-08T11:45:41;102107.91;;;12.54;52.33
30073;BME280;16897;52.422;13.678;2023-04-08T11:49:46;102115.38;;;12.63;52.45
30073;BME280;16897;52.422;13.678;2023-04-08T11:53:47;102090.25;;;12.59;52.36
30073;BME280;16897;52.422;13.678;2023-04-08T11:57:50;102116.44;;;12.79;52.30
30073;BME280;16897;52.422;13.678;2023-04-08T12:01:53;102098.50;;;12.70;52.22
30073;BME280;16897;52.422;13.678;2023-04-08T12:05:54;102109.34;;;12.83;52.18
30073;BME280;16897;52.422;13.678;2023-04-08T12:14:14;102107.00;;;12.96;52.28
30073;BME280;16897;52.422;13.678;2023-04-08T12:18:15;102104.81;;;13.07;52.30
30073;BME280;16897;52.422;13.678;2023-04-08T12:22:16;102095.16;;;13.07;52.14
30073;BME280;16897;52.422;13.678;2023-04-08T12:26:18;102093.91;;;13.16;52.18
30073;BME280;16897;52.422;13.678;2023-04-08T12:30:20;102082.75;;;13.11;51.81
30073;BME280;16897;52.422;13.678;2023-04-08T12:34:21;102073.44;;;13.04;51.84
30073;BME280;16897;52.422;13.678;2023-04-08T12:38:24;102098.94;;;13.21;51.78
30073;BME280;16897;52.422;13.678;2023-04-08T12:42:26;102101.31;;;13.27;51.93
30073;BME280;16897;52.422;13.678;2023-04-08T12:46:28;102089.06;;;13.27;51.93
30073;BME280;16897;52.422;13.678;2023-04-08T12:50:30;102083.47;;;13.35;51.97
30073;BME280;16897;52.422;13.678;2023-04-08T12:54:31;102088.19;;;13.47;51.87
30073;BME280;16897;52.422;13.678;2023-04-08T12:58:33;102086.16;;;13.53;51.81
30073;BME280;16897;52.422;13.678;2023-04-08T13:02:34;102095.13;;;13.67;51.76
30073;BME280;16897;52.422;13.678;2023-04-08T13:06:36;102087.91;;;13.72;51.73
30073;BME280;16897;52.422;13.678;2023-04-08T13:10:38;102098.41;;;13.72;51.64
30073;BME280;16897;52.422;13.678;2023-04-08T13:14:39;102095.78;;;13.72;51.59
30073;BME280;16897;52.422;13.678;2023-04-08T13:18:41;102066.91;;;13.54;51.60
30073;BME280;16897;52.422;13.678;2023-04-08T13:22:42;102095.78;;;13.72;51.60
30073;BME280;16897;52.422;13.678;2023-04-08T13:26:44;102064.75;;;13.62;51.68
30073;BME280;16897;52.422;13.678;2023-04-08T13:30:45;102093.28;;;13.88;51.60
30073;BME280;16897;52.422;13.678;2023-04-08T13:34:47;102073.91;;;13.91;51.47
30073;BME280;16897;52.422;13.678;2023-04-08T13:38:49;102093.41;;;14.04;51.43
30073;BME280;16897;52.422;13.678;2023-04-08T13:42:51;102088.84;;;14.08;51.42
30073;BME280;16897;52.422;13.678;2023-04-08T13:46:52;102095.44;;;14.16;51.24
30073;BME280;16897;52.422;13.678;2023-04-08T13:50:54;102089.97;;;14.21;51.28
30073;BME280;16897;52.422;13.678;2023-04-08T13:54:55;102086.50;;;14.21;51.12
30073;BME280;16897;52.422;13.678;2023-04-08T13:58:57;102029.50;;;14.04;51.12
30073;BME280;16897;52.422;13.678;2023-04-08T14:02:58;102029.59;;;14.02;51.20
30073;BME280;16897;52.422;13.678;2023-04-08T14:07:00;102080.31;;;14.39;51.17
30073;BME280;16897;52.422;13.678;2023-04-08T14:11:03;102079.47;;;14.38;50.93
30073;BME280;16897;52.422;13.678;2023-04-08T14:15:04;102071.50;;;14.40;51.00
30073;BME280;16897;52.422;13.678;2023-04-08T14:19:06;102068.72;;;14.43;51.04
30073;BME280;16897;52.422;13.678;2023-04-08T14:23:08;102042.97;;;14.32;51.10
30073;BME280;16897;52.422;13.678;2023-04-08T14:27:09;102037.19;;;14.43;50.99
30073;BME280;16897;52.422;13.678;2023-04-08T14:31:12;102045.41;;;14.54;50.90
30073;BME280;16897;52.422;13.678;2023-04-08T14:35:13;102068.09;;;14.74;50.68
30073;BME280;16897;52.422;13.678;2023-04-08T14:39:15;102061.78;;;14.77;50.90
30073;BME280;16897;52.422;13.678;2023-04-08T14:43:17;102061.03;;;14.75;50.74
30073;BME280;16897;52.422;13.678;2023-04-08T14:47:18;102074.53;;;14.85;50.78
30073;BME280;16897;52.422;13.678;2023-04-08T14:51:20;102077.63;;;14.93;50.69
30073;BME280;16897;52.422;13.678;2023-04-08T14:55:22;102056.84;;;14.88;50.63
30073;BME280;16897;52.422;13.678;2023-04-08T14:59:23;102068.50;;;15.00;50.57
30073;BME280;16897;52.422;13.678;2023-04-08T15:03:25;102058.03;;;14.98;50.57
30073;BME280;16897;52.422;13.678;2023-04-08T15:07:30;102058.03;;;14.98;50.59
30073;BME280;16897;52.422;13.678;2023-04-08T15:11:32;102065.03;;;14.99;50.53
30073;BME280;16897;52.422;13.678;2023-04-08T15:15:33;102074.13;;;15.10;50.52
30073;BME280;16897;52.422;13.678;2023-04-08T15:19:35;102063.91;;;15.03;50.42
30073;BME280;16897;52.422;13.678;2023-04-08T15:23:36;102075.75;;;15.12;50.48
30073;BME280;16897;52.422;13.678;2023-04-08T15:27:42;102051.94;;;14.98;50.32
30073;BME280;16897;52.422;13.678;2023-04-08T15:31:43;102068.25;;;15.04;50.35
30073;BME280;16897;52.422;13.678;2023-04-08T15:35:45;102083.66;;;15.12;50.44
30073;BME280;16897;52.422;13.678;2023-04-08T15:39:50;102030.22;;;14.77;50.28
30073;BME280;16897;52.422;13.678;2023-04-08T15:43:54;102083.88;;;15.08;50.40
30073;BME280;16897;52.422;13.678;2023-04-08T15:47:55;102090.78;;;15.10;50.36
30073;BME280;16897;52.422;13.678;2023-04-08T15:51:57;102045.63;;;14.85;50.35
30073;BME280;16897;52.422;13.678;2023-04-08T15:55:59;102092.63;;;15.08;50.18
30073;BME280;16897;52.422;13.678;2023-04-08T16:00:08;102097.22;;;15.04;50.19
30073;BME280;16897;52.422;13.678;2023-04-08T16:04:13;102079.50;;;14.91;50.17
30073;BME280;16897;52.422;13.678;2023-04-08T16:08:15;102098.38;;;14.99;50.31
30073;BME280;16897;52.422;13.678;2023-04-08T16:12:17;102075.03;;;14.75;50.20
30073;BME280;16897;52.422;13.678;2023-04-08T16:16:19;102111.38;;;14.85;50.19
30073;BME280;16897;52.422;13.678;2023-04-08T16:20:21;102112.00;;;14.72;50.04
30073;BME280;16897;52.422;13.678;2023-04-08T16:24:23;102109.34;;;14.55;50.14
30073;BME280;16897;52.422;13.678;2023-04-08T16:28:24;102125.47;;;14.47;50.07
30073;BME280;16897;52.422;13.678;2023-04-08T16:32:27;102129.84;;;14.29;50.00
30073;BME280;16897;52.422;13.678;2023-04-08T16:36:29;102138.16;;;14.20;50.05
30073;BME280;16897;52.422;13.678;2023-04-08T16:40:31;102135.50;;;14.03;50.09
30073;BME280;16897;52.422;13.678;2023-04-08T16:44:33;102120.09;;;13.76;49.91
30073;BME280;16897;52.422;13.678;2023-04-08T16:48:35;102163.25;;;13.89;50.13
30073;BME280;16897;52.422;13.678;2023-04-08T16:52:37;102162.91;;;13.78;49.96
30073;BME280;16897;52.422;13.678;2023-04-08T16:56:39;102158.28;;;13.64;49.96
30073;BME280;16897;52.422;13.678;2023-04-08T17:00:44;102161.53;;;13.50;50.07
30073;BME280;16897;52.422;13.678;2023-04-08T17:04:48;102159.28;;;13.41;49.96
30073;BME280;16897;52.422;13.678;2023-04-08T17:08:50;102139.00;;;13.24;50.00
30073;BME280;16897;52.422;13.678;2023-04-08T17:12:52;102182.91;;;13.41;50.09
30073;BME280;16897;52.422;13.678;2023-04-08T17:16:54;102158.69;;;13.14;49.75
30073;BME280;16897;52.422;13.678;2023-04-08T17:20:56;102198.50;;;13.24;49.86
30073;BME280;16897;52.422;13.678;2023-04-08T17:24:58;102168.38;;;12.92;49.99
30073;BME280;16897;52.422;13.678;2023-04-08T17:28:59;102174.75;;;12.86;49.88
30073;BME280;16897;52.422;13.678;2023-04-08T17:33:01;102199.84;;;12.92;49.94
30073;BME280;16897;52.422;13.678;2023-04-08T17:37:04;102173.19;;;12.60;49.93
30073;BME280;16897;52.422;13.678;2023-04-08T17:41:05;102217.13;;;12.75;49.99
30073;BME280;16897;52.422;13.678;2023-04-08T17:45:10;102225.84;;;12.76;49.92
30073;BME280;16897;52.422;13.678;2023-04-08T17:49:11;102211.59;;;12.61;49.66
30073;BME280;16897;52.422;13.678;2023-04-08T17:53:14;102239.00;;;12.74;49.82
30073;BME280;16897;52.422;13.678;2023-04-08T17:57:15;102228.16;;;12.61;49.78
30073;BME280;16897;52.422;13.678;2023-04-08T18:01:18;102232.66;;;12.58;49.76
30073;BME280;16897;52.422;13.678;2023-04-08T18:05:19;102251.78;;;12.60;49.71
30073;BME280;16897;52.422;13.678;2023-04-08T18:09:22;102258.13;;;12.54;49.81
30073;BME280;16897;52.422;13.678;2023-04-08T18:13:23;102272.09;;;12.55;49.74
30073;BME280;16897;52.422;13.678;2023-04-08T18:17:25;102256.03;;;12.40;49.74
30073;BME280;16897;52.422;13.678;2023-04-08T18:21:28;102293.44;;;12.44;49.74
30073;BME280;16897;52.422;13.678;2023-04-08T18:25:30;102272.22;;;12.28;49.73
30073;BME280;16897;52.422;13.678;2023-04-08T18:29:32;102292.31;;;12.28;49.74
30073;BME280;16897;52.422;13.678;2023-04-08T18:33:33;102302.88;;;12.26;49.79
30073;BME280;16897;52.422;13.678;2023-04-08T18:37:35;102292.03;;;12.12;49.70
30073;BME280;16897;52.422;13.678;2023-04-08T18:41:36;102295.72;;;12.06;49.64
30073;BME280;16897;52.422;13.678;2023-04-08T18:45:39;102277.50;;;11.78;49.71
30073;BME280;16897;52.422;13.678;2023-04-08T18:49:41;102315.41;;;11.93;49.73
30073;BME280;16897;52.422;13.678;2023-04-08T18:53:43;102326.09;;;11.87;49.73
30073;BME280;16897;52.422;13.678;2023-04-08T18:57:44;102326.22;;;11.82;49.85
30073;BME280;16897;52.422;13.678;2023-04-08T19:01:46;102328.06;;;11.80;49.68
30073;BME280;16897;52.422;13.678;2023-04-08T19:05:47;102331.78;;;11.73;49.51
30073;BME280;16897;52.422;13.678;2023-04-08T19:09:49;102339.03;;;11.65;49.62
30073;BME280;16897;52.422;13.678;2023-04-08T19:13:55;102340.09;;;11.59;49.54
30073;BME280;16897;52.422;13.678;2023-04-08T19:17:57;102311.44;;;11.29;49.83
30073;BME280;16897;52.422;13.678;2023-04-08T19:21:59;102305.63;;;11.20;49.74
30073;BME280;16897;52.422;13.678;2023-04-08T19:26:04;102347.00;;;11.35;49.63
30073;BME280;16897;52.422;13.678;2023-04-08T19:30:07;102335.81;;;11.30;49.68
30073;BME280;16897;52.422;13.678;2023-04-08T19:34:09;102341.09;;;11.28;49.61
30073;BME280;16897;52.422;13.678;2023-04-08T19:38:11;102338.81;;;11.18;49.55
30073;BME280;16897;52.422;13.678;2023-04-08T19:42:12;102340.75;;;11.13;49.69
30073;BME280;16897;52.422;13.678;2023-04-08T19:46:13;102326.38;;;10.98;49.89
30073;BME280;16897;52.422;13.678;2023-04-08T19:50:16;102345.19;;;11.09;49.75
30073;BME280;16897;52.422;13.678;2023-04-08T19:54:17;102358.25;;;11.09;49.71
30073;BME280;16897;52.422;13.678;2023-04-08T19:58:19;102338.63;;;10.96;49.79
30073;BME280;16897;52.422;13.678;2023-04-08T20:02:23;102338.63;;;10.96;49.76
30073;BME280;16897;52.422;13.678;2023-04-08T20:06:25;102355.75;;;11.06;49.92
30073;BME280;16897;52.422;13.678;2023-04-08T20:10:27;102346.38;;;10.99;49.96
30073;BME280;16897;52.422;13.678;2023-04-08T20:14:29;102364.50;;;11.05;49.84
30073;BME280;16897;52.422;13.678;2023-04-08T20:18:31;102361.28;;;10.97;49.88
30073;BME280;16897;52.422;13.678;2023-04-08T20:22:33;102345.09;;;10.84;49.91
30073;BME280;16897;52.422;13.678;2023-04-08T20:26:35;102365.16;;;10.83;49.92
30073;BME280;16897;52.422;13.678;2023-04-08T20:30:36;102367.91;;;10.79;49.70
30073;BME280;16897;52.422;13.678;2023-04-08T20:34:38;102322.66;;;10.47;49.82
30073;BME280;16897;52.422;13.678;2023-04-08T20:38:39;102353.69;;;10.58;49.77
30073;BME280;16897;52.422;13.678;2023-04-08T20:42:42;102348.69;;;10.50;49.83
30073;BME280;16897;52.422;13.678;2023-04-08T20:46:44;102345.44;;;10.42;49.88
30073;BME280;16897;52.422;13.678;2023-04-08T20:50:49;102369.66;;;10.49;49.77
30073;BME280;16897;52.422;13.678;2023-04-08T20:54:51;102355.84;;;10.44;49.86
30073;BME280;16897;52.422;13.678;2023-04-08T20:58:53;102348.31;;;10.33;49.85
30073;BME280;16897;52.422;13.678;2023-04-08T21:02:54;102356.97;;;10.35;49.96
30073;BME280;16897;52.422;13.678;2023-04-08T21:06:56;102376.06;;;10.37;49.86